sensor_id;sensor_type;location;lat;lon;timestamp;P1;durP1;ratioP1;P2;durP2;ratioP2
4084;SDS011;2057;50.858;6.572;2023-02-03T00:01:34;17.33;;;5.87;;
4084;SDS011;2057;50.858;6.572;2023-02-03T00:03:59;14.00;;;4.70;;
4084;SDS011;2057;50.858;6.572;2023-02-03T00:06:24;15.37;;;5.27;;
4084;SDS011;2057;50.858;6.572;2023-02-03T00:08:54;21.07;;;5.20;;
4084;SDS011;2057;50.858;6.572;2023-02-03T00:11:20;24.33;;;4.90;;
4084;SDS011;2057;50.858;6.572;2023-02-03T00:13:46;12.20;;;4.27;;
4084;SDS011;2057;50.858;6.572;2023-02-03T00:16:12;11.90;;;5.27;;
4084;SDS011;2057;50.858;6.572;2023-02-03T00:18:37;11.13;;;5.63;;
4084;SDS011;2057;50.858;6.572;2023-02-03T00:21:03;14.93;;;4.80;;
4084;SDS011;2057;50.858;6.572;2023-02-03T00:23:29;25.70;;;4.60;;
4084;SDS011;2057;50.858;6.572;2023-02-03T00:25:56;16.73;;;5.00;;
4084;SDS011;2057;50.858;6.572;2023-02-03T00:28:22;15.63;;;4.93;;
4084;SDS011;2057;50.858;6.572;2023-02-03T00:30:47;13.00;;;3.93;;
4084;SDS011;2057;50.858;6.572;2023-02-03T00:33:13;7.93;;;3.73;;
4084;SDS011;2057;50.858;6.572;2023-02-03T00:35:38;8.53;;;4.70;;
4084;SDS011;2057;50.858;6.572;2023-02-03T00:38:04;14.43;;;4.20;;
4084;SDS011;2057;50.858;6.572;2023-02-03T00:40:32;13.70;;;4.17;;
4084;SDS011;2057;50.858;6.572;2023-02-03T00:42:57;12.33;;;4.07;;
4084;SDS011;2057;50.858;6.572;2023-02-03T00:45:23;13.47;;;3.77;;
4084;SDS011;2057;50.858;6.572;2023-02-03T00:47:48;12.23;;;4.13;;
4084;SDS011;2057;50.858;6.572;2023-02-03T00:50:14;13.67;;;3.90;;
4084;SDS011;2057;50.858;6.572;2023-02-03T00:52:39;14.87;;;4.93;;
4084;SDS011;2057;50.858;6.572;2023-02-03T00:55:05;14.73;;;4.60;;
4084;SDS011;2057;50.858;6.572;2023-02-03T00:57:31;15.63;;;3.80;;
4084;SDS011;2057;50.858;6.572;2023-02-03T00:59:56;9.63;;;3.60;;
4084;SDS011;2057;50.858;6.572;2023-02-03T01:02:23;20.90;;;3.70;;
4084;SDS011;2057;50.858;6.572;2023-02-03T01:04:49;17.63;;;4.43;;
4084;SDS011;2057;50.858;6.572;2023-02-03T01:07:14;10.47;;;3.40;;
4084;SDS011;2057;50.858;6.572;2023-02-03T01:09:41;12.87;;;3.97;;
4084;SDS011;2057;50.858;6.572;2023-02-03T01:12:07;17.47;;;4.80;;
4084;SDS011;2057;50.858;6.572;2023-02-03T01:14:32;15.47;;;4.23;;
4084;SDS011;2057;50.858;6.572;2023-02-03T01:17:00;15.47;;;4.30;;
4084;SDS011;2057;50.858;6.572;2023-02-03T01:19:28;11.77;;;4.00;;
4084;SDS011;2057;50.858;6.572;2023-02-03T01:21:58;18.00;;;3.80;;
4084;SDS011;2057;50.858;6.572;2023-02-03T01:24:25;11.77;;;2.93;;
4084;SDS011;2057;50.858;6.572;2023-02-03T01:26:53;17.73;;;5.53;;
4084;SDS011;2057;50.858;6.572;2023-02-03T01:29:20;11.00;;;3.80;;
4084;SDS011;2057;50.858;6.572;2023-02-03T01:31:45;13.50;;;3.93;;
4084;SDS011;2057;50.858;6.572;2023-02-03T01:34:11;16.27;;;4.93;;
4084;SDS011;2057;50.858;6.572;2023-02-03T01:36:38;7.07;;;2.65;;
4084;SDS011;2057;50.858;6.572;2023-02-03T01:39:04;17.67;;;3.23;;
4084;SDS011;2057;50.858;6.572;2023-02-03T01:41:35;11.77;;;3.37;;
4084;SDS011;2057;50.858;6.572;2023-02-03T01:44:30;18.70;;;3.97;;
4084;SDS011;2057;50.858;6.572;2023-02-03T01:46:59;16.13;;;3.10;;
4084;SDS011;2057;50.858;6.572;2023-02-03T01:49:28;23.37;;;4.60;;
4084;SDS011;2057;50.858;6.572;2023-02-03T01:51:58;15.20;;;3.53;;
4084;SDS011;2057;50.858;6.572;2023-02-03T01:54:28;18.03;;;3.57;;
4084;SDS011;2057;50.858;6.572;2023-02-03T01:57:09;13.47;;;3.00;;
4084;SDS011;2057;50.858;6.572;2023-02-03T01:59:40;8.77;;;2.60;;
4084;SDS011;2057;50.858;6.572;2023-02-03T02:02:07;19.57;;;4.40;;
4084;SDS011;2057;50.858;6.572;2023-02-03T02:04:42;12.30;;;3.73;;
4084;SDS011;2057;50.858;6.572;2023-02-03T02:07:17;11.40;;;3.40;;
4084;SDS011;2057;50.858;6.572;2023-02-03T02:09:43;14.80;;;3.20;;
4084;SDS011;2057;50.858;6.572;2023-02-03T02:12:10;10.60;;;4.47;;
4084;SDS011;2057;50.858;6.572;2023-02-03T02:14:36;11.53;;;3.50;;
4084;SDS011;2057;50.858;6.572;2023-02-03T02:17:09;18.90;;;4.57;;
4084;SDS011;2057;50.858;6.572;2023-02-03T02:36:47;7.07;;;3.43;;
4084;SDS011;2057;50.858;6.572;2023-02-03T02:39:12;21.10;;;4.20;;
4084;SDS011;2057;50.858;6.572;2023-02-03T02:41:55;14.50;;;4.23;;
4084;SDS011;2057;50.858;6.572;2023-02-03T02:44:34;12.40;;;4.33;;
4084;SDS011;2057;50.858;6.572;2023-02-03T02:47:06;9.30;;;3.50;;
4084;SDS011;2057;50.858;6.572;2023-02-03T02:49:43;15.57;;;3.67;;
4084;SDS011;2057;50.858;6.572;2023-02-03T02:52:10;10.35;;;3.72;;
4084;SDS011;2057;50.858;6.572;2023-02-03T02:54:39;16.73;;;4.87;;
4084;SDS011;2057;50.858;6.572;2023-02-03T02:57:08;10.80;;;3.53;;
4084;SDS011;2057;50.858;6.572;2023-02-03T02:59:36;14.48;;;3.78;;
4084;SDS011;2057;50.858;6.572;2023-02-03T03:02:02;15.53;;;4.20;;
4084;SDS011;2057;50.858;6.572;2023-02-03T03:04:29;16.77;;;4.30;;
4084;SDS011;2057;50.858;6.572;2023-02-03T03:07:17;16.83;;;3.67;;
4084;SDS011;2057;50.858;6.572;2023-02-03T03:09:53;9.20;;;3.97;;
4084;SDS011;2057;50.858;6.572;2023-02-03T03:12:24;7.40;;;3.90;;
4084;SDS011;2057;50.858;6.572;2023-02-03T03:14:59;9.97;;;3.90;;
4084;SDS011;2057;50.858;6.572;2023-02-03T03:17:29;19.57;;;5.00;;
4084;SDS011;2057;50.858;6.572;2023-02-03T03:20:06;14.93;;;3.33;;
4084;SDS011;2057;50.858;6.572;2023-02-03T03:22:41;15.13;;;3.20;;
4084;SDS011;2057;50.858;6.572;2023-02-03T03:25:15;14.57;;;5.00;;
4084;SDS011;2057;50.858;6.572;2023-02-03T03:27:47;9.80;;;3.97;;
4084;SDS011;2057;50.858;6.572;2023-02-03T03:30:19;13.17;;;3.83;;
4084;SDS011;2057;50.858;6.572;2023-02-03T03:32:53;11.40;;;4.00;;
4084;SDS011;2057;50.858;6.572;2023-02-03T03:35:19;15.40;;;4.97;;
4084;SDS011;2057;50.858;6.572;2023-02-03T03:41:01;19.03;;;4.80;;
4084;SDS011;2057;50.858;6.572;2023-02-03T03:43:30;8.70;;;4.40;;
4084;SDS011;2057;50.858;6.572;2023-02-03T03:46:06;19.30;;;4.97;;
4084;SDS011;2057;50.858;6.572;2023-02-03T03:48:59;21.83;;;4.60;;
4084;SDS011;2057;50.858;6.572;2023-02-03T03:53:53;11.47;;;4.27;;
4084;SDS011;2057;50.858;6.572;2023-02-03T03:56:27;20.33;;;6.50;;
4084;SDS011;2057;50.858;6.572;2023-02-03T03:58:58;12.90;;;5.00;;
4084;SDS011;2057;50.858;6.572;2023-02-03T04:01:27;10.20;;;3.93;;
4084;SDS011;2057;50.858;6.572;2023-02-03T04:03:54;17.67;;;5.47;;
4084;SDS011;2057;50.858;6.572;2023-02-03T04:06:22;8.23;;;3.10;;
4084;SDS011;2057;50.858;6.572;2023-02-03T04:08:50;11.83;;;3.80;;
4084;SDS011;2057;50.858;6.572;2023-02-03T04:11:16;15.03;;;3.30;;
4084;SDS011;2057;50.858;6.572;2023-02-03T04:14:01;11.90;;;5.03;;
4084;SDS011;2057;50.858;6.572;2023-02-03T04:16:27;16.20;;;3.50;;
4084;SDS011;2057;50.858;6.572;2023-02-03T04:18:52;14.93;;;3.60;;
4084;SDS011;2057;50.858;6.572;2023-02-03T04:21:18;14.73;;;3.67;;
4084;SDS011;2057;50.858;6.572;2023-02-03T04:23:43;12.53;;;3.33;;
4084;SDS011;2057;50.858;6.572;2023-02-03T04:26:08;10.50;;;3.03;;
4084;SDS011;2057;50.858;6.572;2023-02-03T04:28:34;11.50;;;2.90;;
4084;SDS011;2057;50.858;6.572;2023-02-03T04:30:59;7.07;;;3.17;;
4084;SDS011;2057;50.858;6.572;2023-02-03T04:33:25;15.43;;;3.73;;
4084;SDS011;2057;50.858;6.572;2023-02-03T04:35:53;12.23;;;3.63;;
4084;SDS011;2057;50.858;6.572;2023-02-03T04:38:18;11.90;;;3.07;;
4084;SDS011;2057;50.858;6.572;2023-02-03T04:40:43;15.63;;;3.50;;
4084;SDS011;2057;50.858;6.572;2023-02-03T04:43:09;9.70;;;3.03;;
4084;SDS011;2057;50.858;6.572;2023-02-03T04:45:35;16.27;;;4.07;;
4084;SDS011;2057;50.858;6.572;2023-02-03T04:48:01;14.97;;;3.17;;
4084;SDS011;2057;50.858;6.572;2023-02-03T04:50:28;27.23;;;5.17;;
4084;SDS011;2057;50.858;6.572;2023-02-03T04:52:54;11.40;;;3.43;;
4084;SDS011;2057;50.858;6.572;2023-02-03T04:55:20;12.53;;;2.70;;
4084;SDS011;2057;50.858;6.572;2023-02-03T04:57:45;15.60;;;4.33;;
4084;SDS011;2057;50.858;6.572;2023-02-03T05:00:10;15.43;;;4.13;;
4084;SDS011;2057;50.858;6.572;2023-02-03T05:02:36;23.23;;;4.07;;
4084;SDS011;2057;50.858;6.572;2023-02-03T05:05:02;9.90;;;3.30;;
4084;SDS011;2057;50.858;6.572;2023-02-03T05:07:27;12.63;;;3.10;;
4084;SDS011;2057;50.858;6.572;2023-02-03T05:09:53;15.07;;;2.73;;
4084;SDS011;2057;50.858;6.572;2023-02-03T05:12:18;13.83;;;3.40;;
4084;SDS011;2057;50.858;6.572;2023-02-03T05:14:43;19.13;;;4.43;;
4084;SDS011;2057;50.858;6.572;2023-02-03T05:17:08;17.13;;;4.00;;
4084;SDS011;2057;50.858;6.572;2023-02-03T05:19:34;9.33;;;3.67;;
4084;SDS011;2057;50.858;6.572;2023-02-03T05:21:59;8.43;;;2.33;;
4084;SDS011;2057;50.858;6.572;2023-02-03T05:24:24;8.07;;;3.17;;
4084;SDS011;2057;50.858;6.572;2023-02-03T05:26:50;11.87;;;2.97;;
4084;SDS011;2057;50.858;6.572;2023-02-03T05:29:15;8.87;;;3.17;;
4084;SDS011;2057;50.858;6.572;2023-02-03T05:31:40;8.53;;;2.43;;
4084;SDS011;2057;50.858;6.572;2023-02-03T05:34:06;8.40;;;2.83;;
4084;SDS011;2057;50.858;6.572;2023-02-03T05:36:31;10.33;;;3.00;;
4084;SDS011;2057;50.858;6.572;2023-02-03T05:38:57;8.50;;;2.43;;
4084;SDS011;2057;50.858;6.572;2023-02-03T05:41:22;16.43;;;3.43;;
4084;SDS011;2057;50.858;6.572;2023-02-03T05:44:06;19.40;;;5.23;;
4084;SDS011;2057;50.858;6.572;2023-02-03T05:46:31;24.70;;;3.70;;
4084;SDS011;2057;50.858;6.572;2023-02-03T05:48:57;14.23;;;3.50;;
4084;SDS011;2057;50.858;6.572;2023-02-03T05:51:22;16.77;;;3.30;;
4084;SDS011;2057;50.858;6.572;2023-02-03T05:53:48;14.83;;;2.90;;
4084;SDS011;2057;50.858;6.572;2023-02-03T05:56:14;15.40;;;2.33;;
4084;SDS011;2057;50.858;6.572;2023-02-03T05:58:42;10.40;;;2.90;;
4084;SDS011;2057;50.858;6.572;2023-02-03T06:01:07;11.80;;;2.80;;
4084;SDS011;2057;50.858;6.572;2023-02-03T06:03:35;13.97;;;3.40;;
4084;SDS011;2057;50.858;6.572;2023-02-03T06:06:05;7.37;;;2.33;;
4084;SDS011;2057;50.858;6.572;2023-02-03T06:08:33;11.33;;;2.47;;
4084;SDS011;2057;50.858;6.572;2023-02-03T06:10:58;15.93;;;2.73;;
4084;SDS011;2057;50.858;6.572;2023-02-03T06:13:27;15.77;;;2.70;;
4084;SDS011;2057;50.858;6.572;2023-02-03T06:15:53;10.87;;;3.63;;
4084;SDS011;2057;50.858;6.572;2023-02-03T06:18:18;9.70;;;2.33;;
4084;SDS011;2057;50.858;6.572;2023-02-03T06:20:44;6.43;;;2.13;;
4084;SDS011;2057;50.858;6.572;2023-02-03T06:23:09;6.57;;;2.20;;
4084;SDS011;2057;50.858;6.572;2023-02-03T06:25:35;9.87;;;2.43;;
4084;SDS011;2057;50.858;6.572;2023-02-03T06:28:00;12.93;;;3.23;;
4084;SDS011;2057;50.858;6.572;2023-02-03T06:30:26;7.07;;;2.77;;
4084;SDS011;2057;50.858;6.572;2023-02-03T06:32:51;7.20;;;2.40;;
4084;SDS011;2057;50.858;6.572;2023-02-03T06:35:17;9.70;;;2.90;;
4084;SDS011;2057;50.858;6.572;2023-02-03T06:37:42;6.87;;;1.90;;
4084;SDS011;2057;50.858;6.572;2023-02-03T06:40:08;13.13;;;2.50;;
4084;SDS011;2057;50.858;6.572;2023-02-03T06:42:35;5.93;;;2.60;;
4084;SDS011;2057;50.858;6.572;2023-02-03T06:45:00;11.90;;;2.83;;
4084;SDS011;2057;50.858;6.572;2023-02-03T06:47:26;10.70;;;2.37;;
4084;SDS011;2057;50.858;6.572;2023-02-03T06:49:53;11.97;;;2.50;;
4084;SDS011;2057;50.858;6.572;2023-02-03T06:52:19;16.90;;;2.63;;
4084;SDS011;2057;50.858;6.572;2023-02-03T06:54:44;9.93;;;2.23;;
4084;SDS011;2057;50.858;6.572;2023-02-03T06:57:12;8.23;;;2.63;;
4084;SDS011;2057;50.858;6.572;2023-02-03T06:59:37;19.10;;;3.23;;
4084;SDS011;2057;50.858;6.572;2023-02-03T07:02:04;5.83;;;1.90;;
4084;SDS011;2057;50.858;6.572;2023-02-03T07:04:29;12.90;;;2.50;;
4084;SDS011;2057;50.858;6.572;2023-02-03T07:06:55;8.80;;;2.30;;
4084;SDS011;2057;50.858;6.572;2023-02-03T07:09:21;14.03;;;2.50;;
4084;SDS011;2057;50.858;6.572;2023-02-03T07:11:47;17.87;;;2.90;;
4084;SDS011;2057;50.858;6.572;2023-02-03T07:14:12;10.03;;;2.40;;
4084;SDS011;2057;50.858;6.572;2023-02-03T07:16:37;12.47;;;2.47;;
4084;SDS011;2057;50.858;6.572;2023-02-03T07:19:03;5.13;;;1.60;;
4084;SDS011;2057;50.858;6.572;2023-02-03T07:21:29;30.23;;;3.73;;
4084;SDS011;2057;50.858;6.572;2023-02-03T07:23:55;3.80;;;1.90;;
4084;SDS011;2057;50.858;6.572;2023-02-03T07:26:20;6.97;;;2.13;;
4084;SDS011;2057;50.858;6.572;2023-02-03T07:28:47;9.03;;;2.00;;
4084;SDS011;2057;50.858;6.572;2023-02-03T07:31:15;6.23;;;1.80;;
4084;SDS011;2057;50.858;6.572;2023-02-03T07:33:43;10.63;;;3.53;;
4084;SDS011;2057;50.858;6.572;2023-02-03T07:36:09;12.43;;;2.50;;
4084;SDS011;2057;50.858;6.572;2023-02-03T07:38:35;11.13;;;2.70;;
4084;SDS011;2057;50.858;6.572;2023-02-03T07:41:02;6.77;;;1.83;;
4084;SDS011;2057;50.858;6.572;2023-02-03T07:43:33;8.00;;;1.43;;
4084;SDS011;2057;50.858;6.572;2023-02-03T07:45:58;6.60;;;2.20;;
4084;SDS011;2057;50.858;6.572;2023-02-03T07:48:25;5.77;;;1.80;;
4084;SDS011;2057;50.858;6.572;2023-02-03T07:50:51;7.80;;;2.87;;
4084;SDS011;2057;50.858;6.572;2023-02-03T07:53:16;8.30;;;2.03;;
4084;SDS011;2057;50.858;6.572;2023-02-03T07:55:42;7.37;;;1.90;;
4084;SDS011;2057;50.858;6.572;2023-02-03T07:58:08;10.90;;;3.73;;
4084;SDS011;2057;50.858;6.572;2023-02-03T08:00:33;11.40;;;1.60;;
4084;SDS011;2057;50.858;6.572;2023-02-03T08:03:01;7.20;;;1.80;;
4084;SDS011;2057;50.858;6.572;2023-02-03T08:05:27;15.37;;;2.73;;
4084;SDS011;2057;50.858;6.572;2023-02-03T08:07:54;10.63;;;2.50;;
4084;SDS011;2057;50.858;6.572;2023-02-03T08:10:22;12.50;;;2.10;;
4084;SDS011;2057;50.858;6.572;2023-02-03T08:12:47;6.87;;;1.77;;
4084;SDS011;2057;50.858;6.572;2023-02-03T08:15:15;8.83;;;2.40;;
4084;SDS011;2057;50.858;6.572;2023-02-03T08:17:41;11.77;;;2.13;;
4084;SDS011;2057;50.858;6.572;2023-02-03T08:20:10;9.53;;;2.10;;
4084;SDS011;2057;50.858;6.572;2023-02-03T08:22:36;6.53;;;1.97;;
4084;SDS011;2057;50.858;6.572;2023-02-03T08:25:01;7.73;;;1.87;;
4084;SDS011;2057;50.858;6.572;2023-02-03T08:27:27;11.93;;;2.67;;
4084;SDS011;2057;50.858;6.572;2023-02-03T08:29:55;4.23;;;1.80;;
4084;SDS011;2057;50.858;6.572;2023-02-03T08:32:21;4.00;;;1.60;;
4084;SDS011;2057;50.858;6.572;2023-02-03T08:34:47;6.10;;;2.80;;
4084;SDS011;2057;50.858;6.572;2023-02-03T08:37:16;7.80;;;2.43;;
4084;SDS011;2057;50.858;6.572;2023-02-03T08:39:43;16.47;;;2.50;;
4084;SDS011;2057;50.858;6.572;2023-02-03T08:42:08;11.00;;;2.20;;
4084;SDS011;2057;50.858;6.572;2023-02-03T08:44:33;17.13;;;2.60;;
4084;SDS011;2057;50.858;6.572;2023-02-03T08:46:59;7.50;;;2.30;;
4084;SDS011;2057;50.858;6.572;2023-02-03T08:49:26;14.10;;;3.17;;
4084;SDS011;2057;50.858;6.572;2023-02-03T08:51:54;6.20;;;2.50;;
4084;SDS011;2057;50.858;6.572;2023-02-03T08:54:21;6.77;;;1.73;;
4084;SDS011;2057;50.858;6.572;2023-02-03T08:56:46;6.90;;;2.13;;
4084;SDS011;2057;50.858;6.572;2023-02-03T08:59:12;4.17;;;1.80;;
4084;SDS011;2057;50.858;6.572;2023-02-03T09:01:39;7.43;;;2.53;;
4084;SDS011;2057;50.858;6.572;2023-02-03T09:04:05;14.77;;;2.10;;
4084;SDS011;2057;50.858;6.572;2023-02-03T09:06:34;7.70;;;2.70;;
4084;SDS011;2057;50.858;6.572;2023-02-03T09:08:59;11.07;;;1.90;;
4084;SDS011;2057;50.858;6.572;2023-02-03T09:11:25;19.17;;;2.63;;
4084;SDS011;2057;50.858;6.572;2023-02-03T09:13:50;6.03;;;2.27;;
4084;SDS011;2057;50.858;6.572;2023-02-03T09:16:16;7.70;;;2.13;;
4084;SDS011;2057;50.858;6.572;2023-02-03T09:18:44;14.57;;;3.23;;
4084;SDS011;2057;50.858;6.572;2023-02-03T09:21:10;12.70;;;2.37;;
4084;SDS011;2057;50.858;6.572;2023-02-03T09:23:37;5.37;;;2.00;;
4084;SDS011;2057;50.858;6.572;2023-02-03T09:26:06;9.67;;;2.60;;
4084;SDS011;2057;50.858;6.572;2023-02-03T09:28:33;19.50;;;3.47;;
4084;SDS011;2057;50.858;6.572;2023-02-03T09:30:59;7.20;;;3.00;;
4084;SDS011;2057;50.858;6.572;2023-02-03T09:33:26;9.87;;;2.43;;
4084;SDS011;2057;50.858;6.572;2023-02-03T09:35:52;6.70;;;2.10;;
4084;SDS011;2057;50.858;6.572;2023-02-03T09:38:18;11.97;;;2.33;;
4084;SDS011;2057;50.858;6.572;2023-02-03T09:40:44;5.00;;;2.10;;
4084;SDS011;2057;50.858;6.572;2023-02-03T09:45:48;12.23;;;3.57;;
4084;SDS011;2057;50.858;6.572;2023-02-03T09:48:15;9.97;;;2.70;;
4084;SDS011;2057;50.858;6.572;2023-02-03T09:50:46;21.83;;;1.97;;
4084;SDS011;2057;50.858;6.572;2023-02-03T09:53:34;18.27;;;3.77;;
4084;SDS011;2057;50.858;6.572;2023-02-03T09:56:11;6.57;;;2.60;;
4084;SDS011;2057;50.858;6.572;2023-02-03T09:58:47;14.70;;;2.93;;
4084;SDS011;2057;50.858;6.572;2023-02-03T10:01:12;16.63;;;2.90;;
4084;SDS011;2057;50.858;6.572;2023-02-03T10:03:50;5.03;;;3.03;;
4084;SDS011;2057;50.858;6.572;2023-02-03T10:06:38;10.53;;;2.80;;
4084;SDS011;2057;50.858;6.572;2023-02-03T10:17:55;5.57;;;2.90;;
4084;SDS011;2057;50.858;6.572;2023-02-03T10:20:27;11.30;;;3.20;;
4084;SDS011;2057;50.858;6.572;2023-02-03T10:22:57;13.27;;;3.20;;
4084;SDS011;2057;50.858;6.572;2023-02-03T10:25:30;11.57;;;3.10;;
4084;SDS011;2057;50.858;6.572;2023-02-03T10:28:02;10.70;;;3.10;;
4084;SDS011;2057;50.858;6.572;2023-02-03T10:30:35;5.30;;;2.47;;
4084;SDS011;2057;50.858;6.572;2023-02-03T10:33:10;5.73;;;2.97;;
4084;SDS011;2057;50.858;6.572;2023-02-03T10:36:29;8.47;;;2.93;;
4084;SDS011;2057;50.858;6.572;2023-02-03T10:41:41;4.03;;;2.50;;
4084;SDS011;2057;50.858;6.572;2023-02-03T10:44:07;6.53;;;2.87;;
4084;SDS011;2057;50.858;6.572;2023-02-03T10:46:37;8.95;;;3.38;;
4084;SDS011;2057;50.858;6.572;2023-02-03T10:49:04;9.70;;;3.80;;
4084;SDS011;2057;50.858;6.572;2023-02-03T10:51:43;15.10;;;3.73;;
4084;SDS011;2057;50.858;6.572;2023-02-03T10:54:27;9.00;;;3.33;;
4084;SDS011;2057;50.858;6.572;2023-02-03T10:57:11;5.37;;;3.57;;
4084;SDS011;2057;50.858;6.572;2023-02-03T10:59:48;9.10;;;3.47;;
4084;SDS011;2057;50.858;6.572;2023-02-03T11:02:21;9.23;;;3.08;;
4084;SDS011;2057;50.858;6.572;2023-02-03T11:05:07;8.90;;;3.00;;
4084;SDS011;2057;50.858;6.572;2023-02-03T11:07:43;14.50;;;3.50;;
4084;SDS011;2057;50.858;6.572;2023-02-03T11:15:59;10.35;;;3.60;;
4084;SDS011;2057;50.858;6.572;2023-02-03T11:21:10;13.57;;;3.67;;
4084;SDS011;2057;50.858;6.572;2023-02-03T11:23:44;4.43;;;3.60;;
4084;SDS011;2057;50.858;6.572;2023-02-03T11:26:11;6.97;;;3.30;;
4084;SDS011;2057;50.858;6.572;2023-02-03T11:28:42;5.83;;;3.60;;
4084;SDS011;2057;50.858;6.572;2023-02-03T11:31:21;5.50;;;4.23;;
4084;SDS011;2057;50.858;6.572;2023-02-03T11:33:50;4.10;;;2.77;;
4084;SDS011;2057;50.858;6.572;2023-02-03T11:36:19;6.40;;;3.40;;
4084;SDS011;2057;50.858;6.572;2023-02-03T11:38:45;6.73;;;3.10;;
4084;SDS011;2057;50.858;6.572;2023-02-03T11:41:17;7.30;;;3.77;;
4084;SDS011;2057;50.858;6.572;2023-02-03T11:43:44;13.10;;;3.70;;
4084;SDS011;2057;50.858;6.572;2023-02-03T11:46:10;12.00;;;3.93;;
4084;SDS011;2057;50.858;6.572;2023-02-03T11:48:38;9.83;;;3.43;;
4084;SDS011;2057;50.858;6.572;2023-02-03T11:54:37;11.00;;;3.80;;
4084;SDS011;2057;50.858;6.572;2023-02-03T12:18:55;24.97;;;4.80;;
4084;SDS011;2057;50.858;6.572;2023-02-03T12:21:44;11.52;;;5.20;;
4084;SDS011;2057;50.858;6.572;2023-02-03T12:24:14;10.90;;;6.00;;
4084;SDS011;2057;50.858;6.572;2023-02-03T12:29:54;10.53;;;6.07;;
4084;SDS011;2057;50.858;6.572;2023-02-03T12:34:58;11.63;;;5.93;;
4084;SDS011;2057;50.858;6.572;2023-02-03T12:37:31;6.80;;;4.73;;
4084;SDS011;2057;50.858;6.572;2023-02-03T12:42:57;6.83;;;5.53;;
4084;SDS011;2057;50.858;6.572;2023-02-03T12:45:33;9.47;;;6.10;;
4084;SDS011;2057;50.858;6.572;2023-02-03T12:48:06;9.93;;;7.10;;
4084;SDS011;2057;50.858;6.572;2023-02-03T12:50:41;14.33;;;6.40;;
4084;SDS011;2057;50.858;6.572;2023-02-03T12:55:46;10.80;;;7.43;;
4084;SDS011;2057;50.858;6.572;2023-02-03T12:58:20;17.23;;;7.07;;
4084;SDS011;2057;50.858;6.572;2023-02-03T13:00:57;18.70;;;7.33;;
4084;SDS011;2057;50.858;6.572;2023-02-03T13:06:05;16.00;;;7.10;;
4084;SDS011;2057;50.858;6.572;2023-02-03T13:08:37;19.00;;;9.10;;
4084;SDS011;2057;50.858;6.572;2023-02-03T13:11:15;10.60;;;8.10;;
4084;SDS011;2057;50.858;6.572;2023-02-03T13:13:53;18.63;;;7.73;;
4084;SDS011;2057;50.858;6.572;2023-02-03T13:16:25;18.73;;;9.30;;
4084;SDS011;2057;50.858;6.572;2023-02-03T13:18:58;29.63;;;9.77;;
4084;SDS011;2057;50.858;6.572;2023-02-03T13:21:27;16.93;;;7.70;;
4084;SDS011;2057;50.858;6.572;2023-02-03T13:23:52;19.17;;;7.63;;
4084;SDS011;2057;50.858;6.572;2023-02-03T13:26:35;17.00;;;8.33;;
4084;SDS011;2057;50.858;6.572;2023-02-03T13:34:42;14.33;;;8.90;;
4084;SDS011;2057;50.858;6.572;2023-02-03T13:37:16;19.37;;;10.30;;
4084;SDS011;2057;50.858;6.572;2023-02-03T13:39:52;20.43;;;9.20;;
4084;SDS011;2057;50.858;6.572;2023-02-03T13:42:30;29.80;;;9.90;;
4084;SDS011;2057;50.858;6.572;2023-02-03T13:47:43;16.20;;;10.57;;
4084;SDS011;2057;50.858;6.572;2023-02-03T13:50:21;17.47;;;10.00;;
4084;SDS011;2057;50.858;6.572;2023-02-03T13:52:54;21.80;;;10.70;;
4084;SDS011;2057;50.858;6.572;2023-02-03T13:55:25;32.87;;;9.70;;
4084;SDS011;2057;50.858;6.572;2023-02-03T13:57:59;17.67;;;11.00;;
4084;SDS011;2057;50.858;6.572;2023-02-03T14:06:04;19.60;;;10.03;;
4084;SDS011;2057;50.858;6.572;2023-02-03T14:16:28;18.63;;;11.43;;
4084;SDS011;2057;50.858;6.572;2023-02-03T14:18:58;17.13;;;12.57;;
4084;SDS011;2057;50.858;6.572;2023-02-03T14:21:24;24.40;;;11.30;;
4084;SDS011;2057;50.858;6.572;2023-02-03T14:24:01;20.50;;;11.73;;
4084;SDS011;2057;50.858;6.572;2023-02-03T14:26:32;15.57;;;11.13;;
4084;SDS011;2057;50.858;6.572;2023-02-03T14:29:02;13.63;;;10.53;;
4084;SDS011;2057;50.858;6.572;2023-02-03T14:31:28;21.10;;;12.10;;
4084;SDS011;2057;50.858;6.572;2023-02-03T14:33:55;24.83;;;13.87;;
4084;SDS011;2057;50.858;6.572;2023-02-03T14:38:52;23.83;;;12.97;;
4084;SDS011;2057;50.858;6.572;2023-02-03T14:41:32;21.23;;;12.17;;
4084;SDS011;2057;50.858;6.572;2023-02-03T14:44:26;19.57;;;12.97;;
4084;SDS011;2057;50.858;6.572;2023-02-03T14:58:34;15.13;;;12.90;;
4084;SDS011;2057;50.858;6.572;2023-02-03T15:01:07;18.53;;;13.50;;
4084;SDS011;2057;50.858;6.572;2023-02-03T15:06:36;25.53;;;11.90;;
4084;SDS011;2057;50.858;6.572;2023-02-03T15:09:02;26.42;;;13.10;;
4084;SDS011;2057;50.858;6.572;2023-02-03T15:11:43;18.42;;;12.70;;
4084;SDS011;2057;50.858;6.572;2023-02-03T15:14:27;29.87;;;13.60;;
4084;SDS011;2057;50.858;6.572;2023-02-03T15:16:58;20.80;;;13.00;;
4084;SDS011;2057;50.858;6.572;2023-02-03T15:19:26;22.10;;;12.73;;
4084;SDS011;2057;50.858;6.572;2023-02-03T15:21:56;24.93;;;12.20;;
4084;SDS011;2057;50.858;6.572;2023-02-03T15:24:21;21.53;;;14.43;;
4084;SDS011;2057;50.858;6.572;2023-02-03T15:26:49;24.90;;;11.57;;
4084;SDS011;2057;50.858;6.572;2023-02-03T15:29:25;31.07;;;15.03;;
4084;SDS011;2057;50.858;6.572;2023-02-03T15:31:57;21.00;;;13.50;;
4084;SDS011;2057;50.858;6.572;2023-02-03T15:34:34;20.73;;;12.30;;
4084;SDS011;2057;50.858;6.572;2023-02-03T15:37:08;18.70;;;11.50;;
4084;SDS011;2057;50.858;6.572;2023-02-03T15:42:29;17.80;;;11.07;;
4084;SDS011;2057;50.858;6.572;2023-02-03T15:45:05;16.93;;;11.67;;
4084;SDS011;2057;50.858;6.572;2023-02-03T15:47:39;31.97;;;14.17;;
4084;SDS011;2057;50.858;6.572;2023-02-03T15:50:21;30.50;;;13.03;;
4084;SDS011;2057;50.858;6.572;2023-02-03T15:52:51;16.90;;;10.83;;
4084;SDS011;2057;50.858;6.572;2023-02-03T15:55:37;24.43;;;12.87;;
4084;SDS011;2057;50.858;6.572;2023-02-03T15:58:29;18.47;;;12.53;;
4084;SDS011;2057;50.858;6.572;2023-02-03T16:01:04;28.50;;;11.27;;
4084;SDS011;2057;50.858;6.572;2023-02-03T16:03:50;16.90;;;12.90;;
4084;SDS011;2057;50.858;6.572;2023-02-03T16:06:18;21.57;;;15.07;;
4084;SDS011;2057;50.858;6.572;2023-02-03T16:09:04;22.30;;;13.60;;
4084;SDS011;2057;50.858;6.572;2023-02-03T16:11:34;19.57;;;14.77;;
4084;SDS011;2057;50.858;6.572;2023-02-03T16:14:04;30.67;;;15.37;;
4084;SDS011;2057;50.858;6.572;2023-02-03T16:19:05;18.70;;;13.03;;
4084;SDS011;2057;50.858;6.572;2023-02-03T16:29:49;31.87;;;12.10;;
4084;SDS011;2057;50.858;6.572;2023-02-03T16:32:34;16.80;;;13.60;;
4084;SDS011;2057;50.858;6.572;2023-02-03T16:35:17;22.27;;;11.47;;
4084;SDS011;2057;50.858;6.572;2023-02-03T16:38:13;20.67;;;11.70;;
4084;SDS011;2057;50.858;6.572;2023-02-03T16:40:58;15.63;;;10.13;;
4084;SDS011;2057;50.858;6.572;2023-02-03T16:43:42;19.33;;;8.93;;
4084;SDS011;2057;50.858;6.572;2023-02-03T16:46:26;21.80;;;10.90;;
4084;SDS011;2057;50.858;6.572;2023-02-03T16:49:10;27.00;;;11.23;;
4084;SDS011;2057;50.858;6.572;2023-02-03T16:51:54;19.07;;;10.50;;
4084;SDS011;2057;50.858;6.572;2023-02-03T16:54:20;14.07;;;9.20;;
4084;SDS011;2057;50.858;6.572;2023-02-03T16:56:47;23.70;;;9.40;;
4084;SDS011;2057;50.858;6.572;2023-02-03T16:59:13;26.50;;;11.00;;
4084;SDS011;2057;50.858;6.572;2023-02-03T17:01:40;17.67;;;11.60;;
4084;SDS011;2057;50.858;6.572;2023-02-03T17:04:05;19.60;;;11.70;;
4084;SDS011;2057;50.858;6.572;2023-02-03T17:06:32;17.23;;;10.63;;
4084;SDS011;2057;50.858;6.572;2023-02-03T17:08:58;16.90;;;9.33;;
4084;SDS011;2057;50.858;6.572;2023-02-03T17:11:23;16.70;;;9.87;;
4084;SDS011;2057;50.858;6.572;2023-02-03T17:13:50;21.30;;;11.83;;
4084;SDS011;2057;50.858;6.572;2023-02-03T17:16:20;15.00;;;9.80;;
4084;SDS011;2057;50.858;6.572;2023-02-03T17:18:48;22.23;;;10.03;;
4084;SDS011;2057;50.858;6.572;2023-02-03T17:21:15;25.10;;;10.80;;
4084;SDS011;2057;50.858;6.572;2023-02-03T17:23:42;25.20;;;11.67;;
4084;SDS011;2057;50.858;6.572;2023-02-03T17:26:07;20.93;;;9.30;;
4084;SDS011;2057;50.858;6.572;2023-02-03T17:28:33;28.70;;;7.63;;
4084;SDS011;2057;50.858;6.572;2023-02-03T17:31:03;12.63;;;7.80;;
4084;SDS011;2057;50.858;6.572;2023-02-03T17:33:30;24.20;;;8.00;;
4084;SDS011;2057;50.858;6.572;2023-02-03T17:36:00;15.43;;;7.80;;